Jacksonville, IL

7:08 AM CST on December 08, 2019 (GMT -0600)
Jacksonville Municipal

Weather History for KIJX - November, 2019

Change the Weather History Date:

Sunday, November 17, 2019

  Actual Average (KSPI) Record (KSPI)
Temperature  
Mean Temperature 36 °F -  
Max Temperature 45 °F 53 °F 79 °F (2016)
Min Temperature 27 °F 34 °F 4 °F (1959)
Degree Days  
Heating Degree Days 29    
Moisture  
Dew Point 34 °F    
Average Humidity 86    
Maximum Humidity 97    
Minimum Humidity 66    
Precipitation  
Precipitation 0.05 in - - ()
Sea Level Pressure  
Sea Level Pressure 29.98 in    
Wind  
Wind Speed 6 mph ()    
Max Wind Speed 12 mph    
Max Gust Speed 17 mph    
Visibility 6.5 miles    
Events Rain    
Averages and records for this station are not official NWS values.
T = Trace of Precipitation, MM = Missing Value Source: Averaged Metar Reports

Daily Weather History Graph

Daily Weather History Graph

Search for Another Location

Airport or City:

Astronomy

Nov. 17, 2019 Rise Set
Actual Time 6:47 AM CST 4:43 PM CST
Civil Twilight 6:18 AM CST 5:12 PM CST
Nautical Twilight 5:45 AM CST 5:45 PM CST
Astronomical Twilight 5:13 AM CST 6:17 PM CST
Moon 9:20 PM CST (11/17) 11:33 AM CST (11/17)
Length of Visible Light 10h 54m
Length of Day
9h 56m
Waning Gibbous, 73% of the Moon is Illuminated
Nov 17
Waning Gibbous
Nov 19
Last Quarter
Nov 26
New
Dec 4
First Quarter
Dec 11
Full

Hourly Weather History & Observations

Time (CST) Temp. Windchill Dew Point Humidity Pressure Visibility Wind Dir Wind Speed Gust Speed Precip Events Conditions
12:15 AM 28.9 °F 22.8 °F 26.8 °F 92% 30.16 in 5.0 mi SE 5.8 mph - N/A   Clear
12:35 AM 29.8 °F 23.0 °F 27.3 °F 90% 30.15 in 5.0 mi SE 6.9 mph - N/A   Clear
12:55 AM 31.5 °F 24.2 °F 27.9 °F 87% 30.14 in 7.0 mi SE 8.1 mph - N/A   Clear
1:35 AM 30.9 °F 26.2 °F 27.1 °F 86% 30.13 in 7.0 mi South 4.6 mph - N/A   Clear
1:55 AM 31.6 °F 27.0 °F 27.3 °F 84% 30.12 in 7.0 mi SSE 4.6 mph - N/A   Clear
2:15 AM 32.4 °F 27.9 °F 28.2 °F 85% 30.13 in 7.0 mi South 4.6 mph - N/A   Clear
2:35 AM 32.0 °F 26.4 °F 27.9 °F 85% 30.12 in 7.0 mi SSE 5.8 mph - N/A   Clear
2:55 AM 30.4 °F 25.6 °F 27.1 °F 88% 30.11 in 7.0 mi SE 4.6 mph - N/A   Clear
3:15 AM 27.3 °F 22.0 °F 25.0 °F 91% 30.10 in 5.0 mi ESE 4.6 mph - N/A   Clear
3:35 AM 30.7 °F 27.3 °F 28.4 °F 91% 30.10 in 5.0 mi SSE 3.5 mph - N/A   Clear
3:55 AM 31.6 °F 27.0 °F 28.6 °F 88% 30.10 in 5.0 mi SE 4.6 mph - N/A   Clear
4:15 AM 32.2 °F 26.7 °F 29.3 °F 89% 30.09 in 5.0 mi SSE 5.8 mph - N/A   Clear
4:35 AM 32.7 °F 26.4 °F 29.7 °F 88% 30.08 in 5.0 mi SSE 6.9 mph - N/A   Clear
4:55 AM 32.9 °F 27.5 °F 29.7 °F 88% 30.08 in 5.0 mi SSE 5.8 mph - N/A   Clear
5:15 AM 32.5 °F 28.1 °F 29.7 °F 89% 30.08 in 5.0 mi South 4.6 mph - N/A   Clear
5:35 AM 32.7 °F 27.3 °F 29.8 °F 89% 30.06 in 5.0 mi SSE 5.8 mph - N/A   Clear
5:55 AM 33.1 °F 27.7 °F 30.2 °F 89% 30.06 in 5.0 mi SSE 5.8 mph - N/A   Clear
6:15 AM 33.8 °F 27.7 °F 30.2 °F 87% 30.06 in 5.0 mi South 6.9 mph - N/A   Scattered Clouds
6:35 AM 33.8 °F 26.4 °F 30.4 °F 87% 30.04 in 5.0 mi SE 9.2 mph - N/A   Clear
6:55 AM 34.0 °F 26.0 °F 30.7 °F 88% 30.04 in 4.0 mi SSE 10.4 mph - N/A   Clear
7:15 AM 34.5 °F 27.9 °F 31.1 °F 87% 30.04 in 4.0 mi SSE 8.1 mph - N/A   Scattered Clouds
7:30 AM 35.1 °F 27.9 °F 31.1 °F 85% 30.04 in 5.0 mi SSE 9.2 mph - N/A   Scattered Clouds
7:55 AM 35.8 °F 30.1 °F 31.1 °F 83% 30.03 in 5.0 mi SSE 6.9 mph - N/A   Haze
8:35 AM 36.5 °F 29.2 °F 31.6 °F 83% 30.02 in 5.0 mi South 10.4 mph - N/A   Haze
8:55 AM 36.5 °F 30.3 °F 32.0 °F 84% 30.02 in 5.0 mi South 8.1 mph - N/A   Haze
9:15 AM 36.9 °F 30.1 °F 32.0 °F 83% 30.01 in 5.0 mi South 9.2 mph - N/A   Haze
9:35 AM 37.6 °F 30.0 °F 32.2 °F 81% 30.01 in 5.0 mi South 11.5 mph - N/A   Haze
9:55 AM 37.8 °F 31.3 °F 32.2 °F 80% 30.00 in 5.0 mi South 9.2 mph - N/A   Haze
10:15 AM 38.7 °F 31.8 °F 32.9 °F 80% 30.00 in 5.0 mi South 10.4 mph - N/A   Haze
10:35 AM 39.6 °F 34.0 °F 33.3 °F 78% 29.98 in 7.0 mi South 8.1 mph 17.3 mph N/A   Overcast
10:55 AM 40.8 °F 35.6 °F 33.3 °F 74% 29.96 in 7.0 mi SSE 8.1 mph - N/A   Mostly Cloudy
11:15 AM 41.0 °F 34.7 °F 33.4 °F 74% 29.96 in 7.0 mi SSW 10.4 mph - N/A   Scattered Clouds
11:35 AM 41.2 °F 36.0 °F 33.4 °F 74% 29.96 in 7.0 mi South 8.1 mph - N/A   Mostly Cloudy
11:55 AM 42.4 °F 38.1 °F 34.0 °F 72% 29.94 in 7.0 mi South 6.9 mph - N/A   Overcast
12:15 PM 42.4 °F 37.5 °F 33.8 °F 71% 29.93 in 7.0 mi South 8.1 mph - N/A   Mostly Cloudy
12:35 PM 43.2 °F 39.0 °F 34.2 °F 71% 29.92 in 7.0 mi SSW 6.9 mph - N/A   Scattered Clouds
12:55 PM 43.9 °F 38.8 °F 34.0 °F 68% 29.91 in 10.0 mi SSW 9.2 mph - N/A   Clear
1:15 PM 44.6 °F 39.7 °F 34.3 °F 67% 29.91 in 10.0 mi SW 9.2 mph - N/A   Mostly Cloudy
1:35 PM 44.6 °F 40.2 °F 34.7 °F 68% 29.90 in 10.0 mi SSW 8.1 mph - N/A   Mostly Cloudy
1:55 PM 45.0 °F 41.2 °F 34.7 °F 67% 29.89 in 10.0 mi SW 6.9 mph - N/A   Mostly Cloudy
2:15 PM 45.1 °F 42.0 °F 34.5 °F 66% 29.88 in 10.0 mi SW 5.8 mph - N/A   Overcast
2:35 PM 45.7 °F 41.5 °F 34.9 °F 66% 29.89 in 10.0 mi WSW 8.1 mph - N/A   Overcast
2:55 PM 45.3 °F 42.3 °F 35.2 °F 68% 29.89 in 10.0 mi SW 5.8 mph - N/A   Light Drizzle
3:15 PM 44.8 °F 41.0 °F 36.3 °F 72% 29.89 in 10.0 mi WSW 6.9 mph - N/A Rain Light Rain
3:35 PM 43.0 °F 39.5 °F 37.4 °F 81% 29.89 in 7.0 mi WSW 5.8 mph - 0.01 in Rain Light Rain
3:55 PM 42.3 °F 40.5 °F 38.3 °F 86% 29.89 in 5.0 mi WSW 3.5 mph - 0.01 in Rain Light Rain
4:15 PM 41.9 °F 40.0 °F 39.2 °F 90% 29.89 in 5.0 mi WSW 3.5 mph - 0.01 in Rain Light Rain
4:35 PM 41.4 °F 38.4 °F 39.2 °F 92% 29.89 in 5.0 mi WSW 4.6 mph - 0.02 in Rain Rain
5:15 PM 41.0 °F 37.1 °F 39.6 °F 95% 29.90 in 5.0 mi West 5.8 mph - 0.01 in Rain Light Rain
5:35 PM 41.0 °F 36.4 °F 39.6 °F 95% 29.90 in 7.0 mi WSW 6.9 mph - 0.02 in Rain Light Rain
5:55 PM 41.0 °F 37.1 °F 39.6 °F 95% 29.90 in 7.0 mi WSW 5.8 mph - 0.02 in   Light Drizzle
6:15 PM 40.6 °F 36.7 °F 39.6 °F 96% 29.90 in 7.0 mi WSW 5.8 mph - N/A   Overcast
6:35 PM 40.6 °F 36.7 °F 39.4 °F 95% 29.90 in 10.0 mi WSW 5.8 mph - N/A   Overcast
7:15 PM 40.5 °F 36.5 °F 39.4 °F 96% 29.91 in 7.0 mi SW 5.8 mph - N/A   Overcast
7:35 PM 40.3 °F 36.3 °F 39.4 °F 97% 29.90 in 7.0 mi WSW 5.8 mph - N/A   Overcast
7:55 PM 40.3 °F 37.1 °F 39.2 °F 96% 29.91 in 7.0 mi West 4.6 mph - N/A   Overcast
8:15 PM 40.3 °F 37.1 °F 39.2 °F 96% 29.90 in 7.0 mi West 4.6 mph - N/A   Overcast
8:35 PM 39.6 °F 35.4 °F 38.8 °F 97% 29.90 in 5.0 mi West 5.8 mph - N/A   Overcast
8:55 PM 39.6 °F 35.4 °F 38.8 °F 97% 29.90 in 7.0 mi West 5.8 mph - N/A   Overcast
9:15 PM 39.6 °F 34.7 °F 38.8 °F 97% 29.90 in 7.0 mi WNW 6.9 mph - N/A   Overcast
9:35 PM 40.1 °F 35.3 °F 39.2 °F 97% 29.90 in 7.0 mi WNW 6.9 mph - N/A   Overcast
9:55 PM 40.1 °F 35.3 °F 38.8 °F 95% 29.90 in 7.0 mi WNW 6.9 mph - N/A   Overcast
10:15 PM 39.9 °F 35.8 °F 38.7 °F 95% 29.89 in 7.0 mi WNW 5.8 mph - N/A   Overcast
10:35 PM 39.7 °F 35.6 °F 37.9 °F 93% 29.88 in 7.0 mi WNW 5.8 mph - N/A   Overcast
10:55 PM 39.6 °F 35.4 °F 37.8 °F 93% 29.88 in 7.0 mi WNW 5.8 mph - N/A   Overcast
11:15 PM 39.4 °F 35.2 °F 37.6 °F 93% 29.88 in 7.0 mi WNW 5.8 mph - N/A   Overcast
11:35 PM 38.8 °F 34.6 °F 37.4 °F 95% 29.88 in 7.0 mi West 5.8 mph - N/A   Overcast
11:55 PM 38.5 °F 35.0 °F 37.4 °F 96% 29.87 in 5.0 mi West 4.6 mph - N/A   Overcast